Time;durP1;ratioP1;P1;durP2;ratioP2;P2;SDS_P1;SDS_P2;PMS_P1;PMS_P2;Temp;Humidity;BMP_temperature;BMP_pressure;BME280_temperature;BME280_humidity;BME280_pressure;Samples;Min_cycle;Max_cycle;Signal;HPM_P1;HPM_P2
2021/11/04 00:00:12;;;;;;;5.00;4.20;;;7.50;99.90;;;;;;5011020;28;20469;-65
2021/11/04 00:02:39;;;;;;;3.70;3.40;;;7.70;99.90;;;;;;5011091;28;20865;-65
2021/11/04 00:05:05;;;;;;;4.10;3.60;;;7.80;99.90;;;;;;5011082;28;20833;-64
2021/11/04 00:07:30;;;;;;;3.90;3.60;;;7.70;99.90;;;;;;5011010;28;21010;-64
2021/11/04 00:09:56;;;;;;;3.77;3.47;;;7.80;99.90;;;;;;5011055;28;20530;-65
2021/11/04 00:12:21;;;;;;;3.70;3.40;;;7.80;99.90;;;;;;5010995;28;20175;-64
2021/11/04 00:14:47;;;;;;;4.23;3.37;;;8.00;99.90;;;;;;5011591;28;20659;-64
2021/11/04 00:17:12;;;;;;;2.93;2.70;;;8.00;99.90;;;;;;5010616;28;20560;-64
2021/11/04 00:19:38;;;;;;;3.23;3.00;;;8.10;99.90;;;;;;5011166;28;20624;-64
2021/11/04 00:22:04;;;;;;;3.70;2.60;;;8.00;99.90;;;;;;5011148;28;20586;-64
2021/11/04 00:24:30;;;;;;;2.53;2.37;;;8.00;99.90;;;;;;5011083;28;20608;-64
2021/11/04 00:26:56;;;;;;;2.30;2.10;;;8.00;99.90;;;;;;5011384;28;20239;-64
2021/11/04 00:29:21;;;;;;;2.60;2.40;;;8.00;99.90;;;;;;5010866;28;20429;-64
2021/11/04 00:31:47;;;;;;;2.47;2.27;;;7.80;99.90;;;;;;5010851;28;20499;-64
2021/11/04 00:34:13;;;;;;;1.90;1.80;;;7.90;99.90;;;;;;5011114;28;20210;-66
2021/11/04 00:36:38;;;;;;;2.53;2.33;;;7.90;99.90;;;;;;5011041;28;20179;-64
2021/11/04 00:39:04;;;;;;;2.47;2.37;;;7.90;99.90;;;;;;5010625;28;20183;-64
2021/11/04 00:41:30;;;;;;;2.63;1.70;;;8.00;99.90;;;;;;5011024;28;20285;-64
2021/11/04 00:43:58;;;;;;;2.47;2.27;;;8.00;99.90;;;;;;5010963;28;20179;-64
2021/11/04 00:46:23;;;;;;;2.27;1.97;;;8.00;99.90;;;;;;5011153;28;20294;-64
2021/11/04 00:48:49;;;;;;;2.30;2.10;;;7.90;99.90;;;;;;5013174;28;20951;-64
2021/11/04 00:51:14;;;;;;;2.07;1.97;;;7.80;99.90;;;;;;5014479;28;20213;-64
2021/11/04 00:53:40;;;;;;;2.20;2.00;;;7.70;99.90;;;;;;5014069;28;20206;-64
2021/11/04 00:56:06;;;;;;;2.73;2.53;;;7.70;99.90;;;;;;5014338;28;20171;-64
2021/11/04 00:58:31;;;;;;;2.10;1.90;;;7.80;99.90;;;;;;5014004;28;20183;-64
2021/11/04 01:00:57;;;;;;;1.93;1.80;;;7.70;99.90;;;;;;5014262;28;20542;-64
2021/11/04 01:03:22;;;;;;;2.83;2.60;;;7.70;99.90;;;;;;5014035;28;20194;-64
2021/11/04 01:05:49;;;;;;;2.30;2.00;;;7.70;99.90;;;;;;5014060;28;20186;-64
2021/11/04 01:08:15;;;;;;;2.20;2.00;;;7.70;99.90;;;;;;5013817;28;20206;-64
2021/11/04 01:10:40;;;;;;;1.97;1.77;;;7.60;99.90;;;;;;5014077;28;20454;-64
2021/11/04 01:13:07;;;;;;;2.60;2.40;;;7.60;99.90;;;;;;5014064;28;20429;-64
2021/11/04 01:15:32;;;;;;;2.60;2.40;;;7.70;99.90;;;;;;5013916;28;20183;-64
2021/11/04 01:17:58;;;;;;;2.50;2.30;;;7.60;99.90;;;;;;5013510;28;20433;-64
2021/11/04 01:20:24;;;;;;;2.13;2.00;;;7.70;99.90;;;;;;5013907;28;20668;-64
2021/11/04 01:22:50;;;;;;;2.43;2.23;;;7.70;99.90;;;;;;5013606;28;20262;-64
2021/11/04 01:25:16;;;;;;;2.13;1.93;;;7.70;99.90;;;;;;5013527;28;20183;-64
2021/11/04 01:27:41;;;;;;;2.87;2.47;;;7.70;99.90;;;;;;5013709;28;20468;-64
2021/11/04 01:30:08;;;;;;;2.93;2.30;;;7.70;99.90;;;;;;5013907;28;20230;-64
2021/11/04 01:32:34;;;;;;;2.10;2.00;;;7.60;99.90;;;;;;5013375;28;20193;-64
2021/11/04 01:35:01;;;;;;;4.00;2.00;;;7.60;99.90;;;;;;5013761;28;20437;-64
2021/11/04 01:37:26;;;;;;;2.77;2.57;;;7.70;99.90;;;;;;5013585;28;20502;-64
2021/11/04 01:39:52;;;;;;;2.20;1.90;;;7.70;99.90;;;;;;5013775;28;20472;-64
2021/11/04 01:42:19;;;;;;;2.47;2.27;;;7.70;99.90;;;;;;4999937;28;20210;-64
2021/11/04 01:44:44;;;;;;;2.27;2.07;;;7.70;99.90;;;;;;5011943;28;20183;-65
2021/11/04 01:47:10;;;;;;;4.00;1.87;;;7.70;99.90;;;;;;5007783;28;20511;-64
2021/11/04 01:49:41;;;;;;;2.47;2.27;;;7.70;99.90;;;;;;5013409;28;20175;-64
2021/11/04 01:52:06;;;;;;;1.93;1.83;;;7.70;99.90;;;;;;5008858;28;20447;-64
2021/11/04 01:54:32;;;;;;;2.00;1.90;;;7.70;99.90;;;;;;5009722;28;20813;-64
2021/11/04 01:56:58;;;;;;;1.97;1.87;;;7.80;99.90;;;;;;5012987;28;20189;-64
2021/11/04 01:59:23;;;;;;;2.40;2.20;;;7.90;99.90;;;;;;5012148;28;20198;-64
2021/11/04 02:02:14;;;;;;;2.60;2.40;;;8.00;99.90;;;;;;5011867;28;20207;-64
2021/11/04 02:05:03;;;;;;;1.57;1.47;;;8.10;99.90;;;;;;5010214;28;20182;-64
2021/11/04 02:07:58;;;;;;;2.70;2.50;;;8.00;99.90;;;;;;5013062;28;20515;-64
2021/11/04 02:10:47;;;;;;;2.70;2.50;;;8.10;99.90;;;;;;5011992;28;20462;-64
2021/11/04 02:13:22;;;;;;;2.40;2.20;;;8.10;99.90;;;;;;5013002;28;20994;-64
2021/11/04 02:15:53;;;;;;;2.50;2.30;;;8.20;99.90;;;;;;5011635;28;20433;-64
2021/11/04 02:18:20;;;;;;;1.97;1.87;;;8.00;99.90;;;;;;5012650;28;20466;-66
2021/11/04 02:20:54;;;;;;;2.17;2.07;;;7.90;99.90;;;;;;5013062;28;20453;-64
2021/11/04 02:23:39;;;;;;;2.33;2.13;;;7.90;99.90;;;;;;5012756;28;20436;-64
2021/11/04 02:26:05;;;;;;;2.23;2.03;;;7.90;99.90;;;;;;4998142;28;20439;-64
2021/11/04 02:28:33;;;;;;;2.47;2.37;;;7.90;99.90;;;;;;5012710;28;20472;-64
2021/11/04 02:31:00;;;;;;;2.70;2.10;;;7.90;99.90;;;;;;5013109;28;20469;-64
2021/11/04 02:33:26;;;;;;;2.30;2.20;;;7.80;99.90;;;;;;5012742;28;21039;-64
2021/11/04 02:35:53;;;;;;;3.50;2.17;;;7.80;99.90;;;;;;5012787;28;20533;-64
2021/11/04 02:38:21;;;;;;;2.50;2.30;;;7.70;99.90;;;;;;5012468;28;20179;-64
2021/11/04 02:40:47;;;;;;;2.23;2.00;;;7.60;99.90;;;;;;5012962;28;20467;-64
2021/11/04 02:43:15;;;;;;;2.70;2.50;;;7.50;99.90;;;;;;5012712;28;20442;-64
2021/11/04 02:45:41;;;;;;;2.50;2.30;;;7.50;99.90;;;;;;5012674;28;20452;-64
2021/11/04 02:48:07;;;;;;;2.53;2.33;;;7.60;99.90;;;;;;5012164;28;20464;-64
2021/11/04 02:50:33;;;;;;;2.40;2.20;;;7.60;99.90;;;;;;5012432;28;20461;-64
2021/11/04 02:52:59;;;;;;;2.20;2.10;;;7.60;99.90;;;;;;5012701;28;20437;-64
2021/11/04 02:55:36;;;;;;;2.60;2.40;;;7.60;99.90;;;;;;5012283;28;20849;-64
2021/11/04 02:58:07;;;;;;;2.00;1.80;;;7.50;99.90;;;;;;5011397;28;20182;-64
2021/11/04 03:00:35;;;;;;;2.00;1.77;;;7.50;99.90;;;;;;5011974;28;20620;-64
2021/11/04 03:03:00;;;;;;;2.00;1.90;;;7.50;99.90;;;;;;5012112;28;20434;-64
2021/11/04 03:05:26;;;;;;;3.70;1.80;;;7.60;99.90;;;;;;5011890;28;20773;-66
2021/11/04 03:07:52;;;;;;;1.50;1.40;;;7.60;99.90;;;;;;5011522;28;20211;-64
2021/11/04 03:10:19;;;;;;;1.70;1.60;;;7.60;99.90;;;;;;5005198;28;20192;-64
2021/11/04 03:12:44;;;;;;;1.13;1.10;;;7.50;99.90;;;;;;5012041;28;20590;-64
2021/11/04 03:15:15;;;;;;;2.37;1.10;;;7.40;99.90;;;;;;5011721;28;20460;-64
2021/11/04 03:17:41;;;;;;;1.20;1.10;;;7.40;99.90;;;;;;5011595;28;20641;-64
2021/11/04 03:20:09;;;;;;;1.20;1.10;;;7.30;99.90;;;;;;5011746;28;20444;-64
2021/11/04 03:22:35;;;;;;;1.07;0.90;;;7.10;99.90;;;;;;5011257;28;20476;-64
2021/11/04 03:25:01;;;;;;;0.90;0.90;;;7.10;99.90;;;;;;5011816;28;20440;-64
2021/11/04 03:27:27;;;;;;;0.73;0.73;;;7.20;99.90;;;;;;5011515;28;20460;-64
2021/11/04 03:29:53;;;;;;;1.10;1.00;;;7.20;99.90;;;;;;5011591;28;20429;-64
2021/11/04 03:32:21;;;;;;;1.17;1.07;;;7.10;99.90;;;;;;5011924;28;20202;-64
2021/11/04 03:34:48;;;;;;;1.40;0.93;;;7.20;99.90;;;;;;5011454;28;20270;-64
2021/11/04 03:37:16;;;;;;;0.90;0.90;;;7.00;99.90;;;;;;5011582;28;20473;-64
2021/11/04 03:39:43;;;;;;;1.10;1.00;;;7.00;99.90;;;;;;5011311;28;20449;-65
2021/11/04 03:42:11;;;;;;;1.00;1.00;;;7.10;99.90;;;;;;5011162;28;21010;-64
2021/11/04 03:44:40;;;;;;;0.90;0.90;;;7.10;99.90;;;;;;5011458;28;20434;-64
2021/11/04 03:47:06;;;;;;;1.30;1.20;;;7.10;99.90;;;;;;5011386;28;20461;-64
2021/11/04 03:49:33;;;;;;;1.37;1.27;;;7.20;99.90;;;;;;5011198;28;20572;-64
2021/11/04 03:51:59;;;;;;;1.20;1.10;;;7.20;99.90;;;;;;5011505;28;20453;-64
2021/11/04 03:54:26;;;;;;;1.20;1.10;;;7.20;99.90;;;;;;5011784;28;20430;-64
2021/11/04 03:56:53;;;;;;;1.77;1.37;;;7.10;99.90;;;;;;5011804;28;20216;-64
2021/11/04 03:59:20;;;;;;;1.23;1.13;;;7.10;99.90;;;;;;5010886;28;20513;-64
2021/11/04 04:01:46;;;;;;;1.07;0.97;;;7.00;99.90;;;;;;5007422;28;20517;-64
2021/11/04 04:04:12;;;;;;;1.30;1.10;;;7.00;99.90;;;;;;5011593;28;20840;-64
2021/11/04 04:06:38;;;;;;;2.10;1.33;;;7.00;99.90;;;;;;5011205;28;20453;-64
2021/11/04 04:09:05;;;;;;;0.93;0.93;;;6.90;99.90;;;;;;4998620;28;20270;-64
2021/11/04 04:11:32;;;;;;;0.97;0.90;;;6.90;99.90;;;;;;5003101;28;20571;-64
2021/11/04 04:13:57;;;;;;;1.20;1.13;;;6.90;99.90;;;;;;5011287;28;20445;-64
2021/11/04 04:16:23;;;;;;;2.13;1.10;;;6.80;99.90;;;;;;5011328;28;20434;-64
2021/11/04 04:18:49;;;;;;;4.07;1.47;;;6.90;99.90;;;;;;5010024;28;20258;-64
2021/11/04 04:21:15;;;;;;;1.23;1.13;;;7.00;99.90;;;;;;5011566;28;20461;-64
2021/11/04 04:23:41;;;;;;;1.90;1.30;;;7.10;99.90;;;;;;5014086;28;21021;-64
2021/11/04 04:26:07;;;;;;;1.23;1.13;;;7.20;99.90;;;;;;5015211;28;20206;-64
2021/11/04 04:28:33;;;;;;;1.20;1.20;;;7.20;99.90;;;;;;5014123;28;21028;-64
2021/11/04 04:30:59;;;;;;;1.27;1.17;;;7.30;99.90;;;;;;5036907;23;20482;-70
2021/11/04 04:33:25;;;;;;;1.30;1.20;;;7.30;99.90;;;;;;5015152;28;20525;-70
2021/11/04 04:35:51;;;;;;;1.50;1.40;;;7.20;99.90;;;;;;5015022;28;20667;-70
2021/11/04 04:38:17;;;;;;;3.53;3.23;;;7.30;99.90;;;;;;5014372;28;20187;-71
2021/11/04 04:40:43;;;;;;;1.53;1.43;;;7.20;99.90;;;;;;5014419;28;20454;-71
2021/11/04 04:43:09;;;;;;;3.30;2.57;;;7.20;99.90;;;;;;5014787;28;20445;-71
2021/11/04 04:45:34;;;;;;;2.10;1.83;;;7.20;99.90;;;;;;5013648;28;20433;-71
2021/11/04 04:48:00;;;;;;;1.53;1.43;;;7.20;99.90;;;;;;5014168;28;20531;-70
2021/11/04 04:50:26;;;;;;;1.50;1.40;;;7.10;99.90;;;;;;5014929;28;20183;-71
2021/11/04 04:52:51;;;;;;;1.53;1.43;;;7.10;99.90;;;;;;5012963;28;20175;-71
2021/11/04 04:55:17;;;;;;;1.13;1.13;;;7.10;99.90;;;;;;5009825;28;20555;-70
2021/11/04 04:57:42;;;;;;;1.63;1.53;;;7.20;99.90;;;;;;5012286;28;20539;-70
2021/11/04 05:00:11;;;;;;;1.40;1.30;;;7.10;99.90;;;;;;5014427;28;20261;-71
2021/11/04 05:02:42;;;;;;;1.30;1.20;;;7.20;99.90;;;;;;5014432;28;20167;-70
2021/11/04 05:05:08;;;;;;;1.50;1.40;;;7.10;99.90;;;;;;5014574;28;20960;-70
2021/11/04 05:07:34;;;;;;;1.50;1.40;;;7.00;99.90;;;;;;5013745;28;20985;-70
2021/11/04 05:10:01;;;;;;;1.37;1.27;;;7.00;99.90;;;;;;5014157;28;20426;-70
2021/11/04 05:12:27;;;;;;;1.50;1.40;;;6.90;99.90;;;;;;5014576;28;20199;-71
2021/11/04 05:14:53;;;;;;;1.87;1.20;;;6.80;99.90;;;;;;5014293;28;20851;-70
2021/11/04 05:17:18;;;;;;;1.37;1.27;;;6.80;99.90;;;;;;5005429;28;20184;-70
2021/11/04 05:19:44;;;;;;;1.70;1.60;;;6.80;99.90;;;;;;5011416;28;20565;-71
2021/11/04 05:22:09;;;;;;;1.20;1.20;;;6.80;99.90;;;;;;5014087;28;20282;-71
2021/11/04 05:24:35;;;;;;;1.10;1.00;;;6.80;99.90;;;;;;5013679;28;20183;-70
2021/11/04 05:27:02;;;;;;;1.20;1.17;;;6.70;99.90;;;;;;5013968;28;20214;-70
2021/11/04 05:29:27;;;;;;;1.13;1.13;;;6.70;99.90;;;;;;5013751;28;20194;-70
2021/11/04 05:31:53;;;;;;;0.90;0.90;;;6.60;99.90;;;;;;5013728;28;20544;-70
2021/11/04 05:34:19;;;;;;;1.00;1.00;;;7.00;99.90;;;;;;5013936;28;20314;-71
2021/11/04 05:36:44;;;;;;;1.00;1.00;;;6.70;99.90;;;;;;5013640;28;20202;-71
2021/11/04 05:39:10;;;;;;;1.20;1.10;;;6.80;99.90;;;;;;5013442;28;20175;-70
2021/11/04 05:41:35;;;;;;;1.43;1.33;;;6.80;99.90;;;;;;5013391;28;20296;-71
2021/11/04 05:44:01;;;;;;;1.03;1.00;;;6.70;99.90;;;;;;5013436;28;20191;-70
2021/11/04 05:46:26;;;;;;;1.10;1.03;;;6.60;99.90;;;;;;5013973;28;20175;-70
2021/11/04 05:48:52;;;;;;;1.10;1.00;;;6.50;99.90;;;;;;5013143;28;20554;-72
2021/11/04 05:51:18;;;;;;;1.00;1.00;;;6.50;99.90;;;;;;5013446;28;20205;-70
2021/11/04 05:53:43;;;;;;;0.80;0.80;;;6.50;99.90;;;;;;5013091;28;20530;-70
2021/11/04 05:56:09;;;;;;;1.00;1.00;;;6.50;99.90;;;;;;5013641;28;20225;-71
2021/11/04 05:58:34;;;;;;;1.10;1.00;;;6.60;99.90;;;;;;5013146;28;20194;-70
2021/11/04 06:01:00;;;;;;;1.00;0.87;;;6.50;99.90;;;;;;5013051;28;20194;-70
2021/11/04 06:03:25;;;;;;;1.00;1.00;;;6.50;99.90;;;;;;5013531;28;20175;-70
2021/11/04 06:05:51;;;;;;;1.20;1.10;;;6.60;99.90;;;;;;5012930;28;20190;-70
2021/11/04 06:08:16;;;;;;;1.30;1.20;;;5.70;99.90;;;;;;5012473;28;20202;-70
2021/11/04 06:10:42;;;;;;;1.90;1.80;;;6.50;99.90;;;;;;5008322;28;20253;-70
2021/11/04 06:13:08;;;;;;;1.53;1.43;;;6.40;99.90;;;;;;5008510;28;20203;-70
2021/11/04 06:15:33;;;;;;;1.10;1.00;;;6.40;99.90;;;;;;5008792;28;20175;-70
2021/11/04 06:17:59;;;;;;;1.20;1.10;;;6.40;99.90;;;;;;5017486;28;20197;-70
2021/11/04 06:20:25;;;;;;;1.50;1.40;;;6.40;99.90;;;;;;5013666;28;20588;-70
2021/11/04 06:22:50;;;;;;;1.40;1.30;;;6.30;99.90;;;;;;5012883;28;20672;-70
2021/11/04 06:25:16;;;;;;;1.63;1.47;;;6.30;99.90;;;;;;5013157;28;20444;-70
2021/11/04 06:27:41;;;;;;;1.30;1.20;;;6.30;99.90;;;;;;5012215;28;20210;-70
2021/11/04 06:30:08;;;;;;;1.47;1.37;;;6.20;99.90;;;;;;5012865;28;20229;-70
2021/11/04 06:32:35;;;;;;;2.07;1.27;;;6.20;99.90;;;;;;5012976;28;20253;-71
2021/11/04 06:35:02;;;;;;;2.30;1.93;;;6.20;99.90;;;;;;5012897;28;20429;-71
2021/11/04 06:37:28;;;;;;;2.03;1.93;;;6.20;99.90;;;;;;5012681;28;20565;-69
2021/11/04 06:39:54;;;;;;;1.67;1.57;;;6.20;99.90;;;;;;5008465;28;20534;-68
2021/11/04 06:42:19;;;;;;;1.97;1.10;;;6.20;99.90;;;;;;5012676;28;20557;-67
2021/11/04 06:44:45;;;;;;;5.50;2.10;;;6.20;99.90;;;;;;5012514;28;20190;-67
2021/11/04 06:47:19;;;;;;;1.53;1.40;;;6.30;99.90;;;;;;5012043;28;20198;-69
2021/11/04 06:49:50;;;;;;;3.13;2.17;;;6.30;99.90;;;;;;5011292;28;20232;-69
2021/11/04 06:52:23;;;;;;;1.80;1.70;;;6.40;99.90;;;;;;5012735;28;20465;-70
2021/11/04 06:54:50;;;;;;;1.60;1.50;;;6.40;99.90;;;;;;5001250;28;20811;-70
2021/11/04 06:57:19;;;;;;;1.83;1.57;;;6.40;99.90;;;;;;5011743;28;20433;-71
2021/11/04 06:59:51;;;;;;;1.50;1.40;;;6.50;99.90;;;;;;5011900;28;20440;-70
2021/11/04 07:02:37;;;;;;;1.63;1.37;;;6.50;99.90;;;;;;5012545;28;20449;-69
2021/11/04 07:05:05;;;;;;;3.37;2.00;;;6.60;99.90;;;;;;5012621;28;20487;-70
2021/11/04 07:10:29;;;;;;;1.77;1.67;;;6.60;99.90;;;;;;5000563;28;21070;-69
2021/11/04 07:12:55;;;;;;;2.10;2.00;;;6.70;99.90;;;;;;5012992;28;20919;-69
2021/11/04 07:15:22;;;;;;;3.03;1.57;;;6.60;99.90;;;;;;5012946;28;20422;-69
2021/11/04 07:17:48;;;;;;;2.77;1.60;;;6.70;99.90;;;;;;5012307;28;20788;-70
2021/11/04 07:20:17;;;;;;;3.47;2.40;;;6.70;99.90;;;;;;5012171;28;20566;-69
2021/11/04 07:22:53;;;;;;;2.20;1.63;;;6.70;99.90;;;;;;5012556;28;20475;-69
2021/11/04 07:25:22;;;;;;;1.83;1.73;;;6.60;99.90;;;;;;5012605;28;20464;-69
2021/11/04 07:27:59;;;;;;;1.87;1.77;;;6.60;99.90;;;;;;5012223;28;20587;-69
2021/11/04 07:30:29;;;;;;;2.03;1.67;;;6.60;99.90;;;;;;5004529;28;20974;-69
2021/11/04 07:32:58;;;;;;;2.57;2.33;;;6.70;99.90;;;;;;4999340;28;20480;-70
2021/11/04 07:35:29;;;;;;;2.70;2.27;;;6.80;99.90;;;;;;4982996;28;20421;-70
2021/11/04 07:37:56;;;;;;;3.00;1.90;;;6.80;99.90;;;;;;5009939;28;20418;-70
2021/11/04 07:40:24;;;;;;;1.87;1.77;;;6.80;99.90;;;;;;5012114;28;20421;-70
2021/11/04 07:42:50;;;;;;;2.10;1.90;;;6.80;99.90;;;;;;5006593;28;20943;-70
2021/11/04 07:45:16;;;;;;;2.90;2.60;;;6.70;99.90;;;;;;5006345;28;22055;-70
2021/11/04 07:47:43;;;;;;;2.67;2.30;;;6.70;99.90;;;;;;5006020;28;20833;-70
2021/11/04 07:50:12;;;;;;;6.60;4.27;;;6.70;99.90;;;;;;5006967;28;20434;-70
2021/11/04 07:52:39;;;;;;;2.03;1.80;;;6.60;99.90;;;;;;5001408;28;20437;-70
2021/11/04 07:55:06;;;;;;;1.83;1.73;;;6.70;99.90;;;;;;5004832;28;20784;-70
2021/11/04 07:57:32;;;;;;;2.20;2.00;;;6.60;99.90;;;;;;5006763;28;20438;-70
2021/11/04 08:00:02;;;;;;;3.50;2.77;;;6.60;99.90;;;;;;5003711;28;20425;-71
2021/11/04 08:02:28;;;;;;;1.97;1.87;;;6.60;99.90;;;;;;5012917;28;20879;-72
2021/11/04 08:04:53;;;;;;;4.63;3.47;;;6.50;99.90;;;;;;5015321;28;20421;-70
2021/11/04 08:07:19;;;;;;;3.20;2.90;;;6.50;99.90;;;;;;5014423;28;20203;-70
2021/11/04 08:09:44;;;;;;;4.77;3.00;;;6.30;99.90;;;;;;5015953;28;20663;-71
2021/11/04 08:12:10;;;;;;;4.00;2.93;;;6.30;99.90;;;;;;5015817;28;20186;-71
2021/11/04 08:14:35;;;;;;;3.37;3.07;;;6.20;99.90;;;;;;5012486;28;20182;-71
2021/11/04 08:17:01;;;;;;;3.50;3.10;;;6.20;99.90;;;;;;5015727;28;20175;-70
2021/11/04 08:19:26;;;;;;;3.70;3.20;;;6.30;99.90;;;;;;5015502;28;20246;-69
2021/11/04 08:21:52;;;;;;;3.40;2.50;;;6.30;99.90;;;;;;5015642;28;20248;-70
2021/11/04 08:24:18;;;;;;;6.43;4.37;;;6.20;99.90;;;;;;5012198;28;20175;-71
2021/11/04 08:26:43;;;;;;;3.90;3.60;;;6.20;99.90;;;;;;5009487;28;20177;-70
2021/11/04 08:29:09;;;;;;;5.43;4.23;;;6.20;99.90;;;;;;5007148;28;20211;-70
2021/11/04 08:31:34;;;;;;;4.67;3.87;;;6.30;99.90;;;;;;5012086;28;20210;-70
2021/11/04 08:34:00;;;;;;;5.57;4.87;;;6.30;99.90;;;;;;5008500;28;20191;-70
2021/11/04 08:36:25;;;;;;;4.13;3.77;;;6.30;99.90;;;;;;5012316;28;20171;-70
2021/11/04 08:38:51;;;;;;;5.27;3.97;;;6.20;99.90;;;;;;5012232;28;20175;-71
2021/11/04 08:41:17;;;;;;;4.90;4.43;;;6.30;99.90;;;;;;5012089;28;20230;-69
2021/11/04 08:43:42;;;;;;;6.50;5.90;;;6.30;99.90;;;;;;5008637;28;20785;-70
2021/11/04 08:46:08;;;;;;;5.30;4.83;;;6.30;99.90;;;;;;5011921;28;20592;-69
2021/11/04 08:48:35;;;;;;;5.90;5.40;;;6.30;99.90;;;;;;5011836;28;20205;-70
2021/11/04 08:51:00;;;;;;;7.57;6.90;;;6.30;99.90;;;;;;5011976;28;20442;-71
2021/11/04 08:53:26;;;;;;;8.23;7.63;;;6.30;99.90;;;;;;5008134;28;20463;-69
2021/11/04 08:55:52;;;;;;;5.20;4.47;;;6.30;99.90;;;;;;5008728;28;20175;-70
2021/11/04 08:58:18;;;;;;;5.30;4.80;;;6.40;99.90;;;;;;5008723;28;20214;-69
2021/11/04 09:00:43;;;;;;;5.90;4.73;;;6.40;99.90;;;;;;5011828;28;20546;-70
2021/11/04 09:03:09;;;;;;;5.80;5.17;;;6.40;99.90;;;;;;5008221;28;20441;-69
2021/11/04 09:05:37;;;;;;;6.30;5.40;;;6.40;99.90;;;;;;5011835;28;20198;-70
2021/11/04 09:08:05;;;;;;;7.63;5.90;;;6.40;99.90;;;;;;5010820;28;20294;-70
2021/11/04 09:10:30;;;;;;;7.40;4.70;;;6.50;99.90;;;;;;5011629;28;20445;-71
2021/11/04 09:12:56;;;;;;;5.67;5.10;;;6.60;99.90;;;;;;5008464;28;20496;-70
2021/11/04 09:15:21;;;;;;;4.47;4.17;;;6.60;99.90;;;;;;5011682;28;20171;-70
2021/11/04 09:17:47;;;;;;;6.30;5.70;;;6.60;99.90;;;;;;5011035;28;20267;-70
2021/11/04 09:20:16;;;;;;;4.40;4.00;;;6.70;99.90;;;;;;5011403;28;20182;-70
2021/11/04 09:22:45;;;;;;;5.07;4.27;;;6.70;99.90;;;;;;5008035;28;20191;-71
2021/11/04 09:25:11;;;;;;;5.30;4.90;;;6.70;99.90;;;;;;5009910;28;20517;-70
2021/11/04 09:27:36;;;;;;;4.80;4.30;;;6.70;99.90;;;;;;5010895;28;20881;-71
2021/11/04 09:30:03;;;;;;;5.37;4.77;;;6.70;99.90;;;;;;5011113;28;20178;-70
2021/11/04 09:32:28;;;;;;;4.73;3.97;;;6.80;99.90;;;;;;5008142;28;20290;-70
2021/11/04 09:34:54;;;;;;;3.87;3.43;;;6.90;99.90;;;;;;5010277;28;20512;-70
2021/11/04 09:37:20;;;;;;;3.80;3.50;;;6.90;99.90;;;;;;5010977;28;20258;-71
2021/11/04 09:39:49;;;;;;;7.73;3.33;;;6.90;99.90;;;;;;5008151;28;20207;-70
2021/11/04 09:42:18;;;;;;;3.43;2.87;;;7.00;99.90;;;;;;5010761;28;20222;-70
2021/11/04 09:44:50;;;;;;;5.13;2.80;;;6.90;99.90;;;;;;5008868;28;20430;-70
2021/11/04 09:47:21;;;;;;;2.57;2.37;;;6.90;99.90;;;;;;5010550;28;20465;-70
2021/11/04 09:49:48;;;;;;;4.63;2.90;;;6.90;99.90;;;;;;5010753;28;20969;-70
2021/11/04 09:52:14;;;;;;;4.20;3.17;;;6.90;99.90;;;;;;5010590;28;21012;-70
2021/11/04 09:54:39;;;;;;;2.47;2.27;;;6.90;99.90;;;;;;5008056;28;20441;-70
2021/11/04 09:57:09;;;;;;;3.23;2.87;;;6.80;99.90;;;;;;5013158;28;20178;-70
2021/11/04 09:59:35;;;;;;;2.80;2.60;;;6.80;99.90;;;;;;5012943;28;20672;-70
2021/11/04 10:02:00;;;;;;;1.50;1.40;;;6.80;99.90;;;;;;5013673;28;20441;-69
2021/11/04 10:04:31;;;;;;;4.07;1.97;;;6.70;99.90;;;;;;5010127;28;20519;-70
2021/11/04 10:06:57;;;;;;;9.50;2.40;;;6.60;99.90;;;;;;5013673;28;20221;-70
2021/11/04 10:09:27;;;;;;;2.90;2.40;;;6.70;99.90;;;;;;5011153;28;20418;-70
2021/11/04 10:11:54;;;;;;;2.60;2.40;;;6.80;99.90;;;;;;4994039;28;20195;-70
2021/11/04 10:14:20;;;;;;;1.57;1.47;;;6.70;99.90;;;;;;5007348;28;20418;-67
2021/11/04 10:16:46;;;;;;;1.63;1.43;;;6.60;99.90;;;;;;5013567;28;20939;-70
2021/11/04 10:19:18;;;;;;;1.00;1.00;;;6.60;99.90;;;;;;5013070;28;20179;-70
2021/11/04 10:21:50;;;;;;;4.77;2.90;;;6.70;99.90;;;;;;5012805;28;20521;-69
2021/11/04 10:24:18;;;;;;;2.60;2.17;;;6.70;99.90;;;;;;5009919;28;20421;-70
2021/11/04 10:26:45;;;;;;;1.60;1.37;;;6.90;99.90;;;;;;5013257;28;20418;-70
2021/11/04 10:29:14;;;;;;;4.77;1.70;;;6.90;99.90;;;;;;5012843;28;20575;-69
2021/11/04 10:31:46;;;;;;;1.43;1.20;;;7.10;99.90;;;;;;5013577;28;20458;-70
2021/11/04 10:34:34;;;;;;;2.33;1.43;;;7.20;99.90;;;;;;5009685;28;20515;-71
2021/11/04 10:37:16;;;;;;;3.10;1.97;;;7.30;99.90;;;;;;5013091;28;20497;-70
2021/11/04 10:39:45;;;;;;;3.10;2.10;;;7.30;99.90;;;;;;5012710;28;20410;-70
2021/11/04 10:42:11;;;;;;;3.17;1.93;;;7.30;99.90;;;;;;4993601;28;20443;-71
2021/11/04 10:44:37;;;;;;;1.63;1.53;;;7.40;99.90;;;;;;5009235;28;20430;-70
2021/11/04 10:47:03;;;;;;;2.00;1.40;;;7.30;99.90;;;;;;5011487;28;20425;-70
2021/11/04 10:49:47;;;;;;;1.60;1.30;;;7.30;99.90;;;;;;5012475;28;20637;-69
2021/11/04 10:52:14;;;;;;;2.57;1.33;;;7.30;99.90;;;;;;5012819;28;20460;-69
2021/11/04 10:54:50;;;;;;;2.90;2.00;;;7.30;99.90;;;;;;5009797;28;20923;-69
2021/11/04 10:57:35;;;;;;;4.47;3.03;;;7.20;99.90;;;;;;5009522;28;20437;-70
2021/11/04 11:00:23;;;;;;;2.00;1.80;;;7.30;99.90;;;;;;5009576;28;20872;-69
2021/11/04 11:03:01;;;;;;;9.10;2.53;;;7.40;99.90;;;;;;5009385;28;20506;-70
2021/11/04 11:05:28;;;;;;;2.30;2.10;;;7.40;99.90;;;;;;5012620;28;20927;-69
2021/11/04 11:07:55;;;;;;;2.23;2.00;;;7.30;99.90;;;;;;5012373;28;20462;-69
2021/11/04 11:10:21;;;;;;;1.57;1.47;;;7.20;99.90;;;;;;5012491;28;20429;-70
2021/11/04 11:12:47;;;;;;;6.37;3.97;;;7.20;99.90;;;;;;5009602;28;20422;-71
2021/11/04 11:15:12;;;;;;;3.60;2.70;;;7.10;99.90;;;;;;5012085;28;20182;-70
2021/11/04 11:17:42;;;;;;;2.50;2.30;;;7.10;99.90;;;;;;5012295;28;20233;-70
2021/11/04 11:20:09;;;;;;;2.27;1.90;;;7.20;99.90;;;;;;5012498;28;20171;-71
2021/11/04 11:22:40;;;;;;;2.53;2.20;;;7.30;99.90;;;;;;5009434;28;20441;-67
2021/11/04 11:25:06;;;;;;;3.00;2.40;;;7.30;99.90;;;;;;5011867;28;20514;-68
2021/11/04 11:27:31;;;;;;;3.77;3.20;;;7.40;99.90;;;;;;5012062;28;20548;-69
2021/11/04 11:29:57;;;;;;;2.97;2.67;;;7.40;99.90;;;;;;5012394;28;20605;-69
2021/11/04 11:32:29;;;;;;;3.40;3.10;;;7.40;99.90;;;;;;5010344;28;20213;-71
2021/11/04 11:35:20;;;;;;;5.07;4.57;;;7.50;99.90;;;;;;5011446;28;20421;-68
2021/11/04 11:37:57;;;;;;;5.63;3.70;;;7.40;99.90;;;;;;5012270;28;20786;-68
2021/11/04 11:40:24;;;;;;;3.60;3.30;;;7.30;99.90;;;;;;5012210;28;20424;-69
2021/11/04 11:43:14;;;;;;;8.20;7.40;;;7.30;99.90;;;;;;5009174;28;21337;-68
2021/11/04 11:45:42;;;;;;;5.90;5.30;;;7.30;99.90;;;;;;5012271;28;20433;-69
2021/11/04 11:48:25;;;;;;;4.60;4.10;;;7.30;99.90;;;;;;4999209;28;20994;-70
2021/11/04 11:50:52;;;;;;;4.97;4.43;;;7.30;99.90;;;;;;5008081;28;20464;-70
2021/11/04 11:53:23;;;;;;;5.93;5.30;;;7.30;99.90;;;;;;5005372;28;20425;-70
2021/11/04 11:55:50;;;;;;;5.77;5.17;;;7.20;99.90;;;;;;5008788;28;20422;-70
2021/11/04 11:58:19;;;;;;;8.33;5.80;;;7.20;99.90;;;;;;5008497;28;20426;-69
2021/11/04 12:00:56;;;;;;;6.00;5.40;;;7.40;99.90;;;;;;5008889;28;20946;-70
2021/11/04 12:03:37;;;;;;;5.57;5.07;;;7.50;99.90;;;;;;5005530;28;20421;-70
2021/11/04 12:06:15;;;;;;;7.53;5.93;;;7.70;99.90;;;;;;5009085;28;20421;-70
2021/11/04 12:08:47;;;;;;;6.50;5.90;;;7.70;99.90;;;;;;5008415;28;20458;-70
2021/11/04 12:11:35;;;;;;;6.63;6.03;;;7.80;99.90;;;;;;5008716;28;20448;-69
2021/11/04 12:14:20;;;;;;;6.63;5.73;;;7.80;99.90;;;;;;5005295;28;20433;-70
2021/11/04 12:17:01;;;;;;;6.50;5.90;;;7.90;99.90;;;;;;5008834;28;20456;-70
2021/11/04 12:19:48;;;;;;;8.90;7.27;;;8.00;99.90;;;;;;5008659;28;20504;-70
2021/11/04 12:22:37;;;;;;;10.27;8.20;;;8.20;99.90;;;;;;5007335;28;20452;-70
2021/11/04 12:25:06;;;;;;;9.80;6.20;;;8.20;99.90;;;;;;5008191;28;20426;-69
2021/11/04 12:27:33;;;;;;;6.20;5.60;;;8.20;99.90;;;;;;5008210;28;20453;-70
2021/11/04 12:30:28;;;;;;;5.77;5.17;;;8.30;99.90;;;;;;5008901;28;20414;-70
2021/11/04 12:33:10;;;;;;;8.20;7.20;;;8.50;99.90;;;;;;5005732;28;20982;-70
2021/11/04 12:35:41;;;;;;;6.17;5.60;;;8.50;99.90;;;;;;5008024;28;20517;-69
2021/11/04 12:38:06;;;;;;;5.30;4.80;;;8.60;99.90;;;;;;5008322;28;20418;-70
2021/11/04 12:40:32;;;;;;;5.73;5.23;;;8.80;99.90;;;;;;5008805;28;20426;-69
2021/11/04 12:43:06;;;;;;;8.03;6.57;;;8.70;99.90;;;;;;5005741;28;20191;-70
2021/11/04 12:45:32;;;;;;;6.40;5.80;;;8.80;99.90;;;;;;5011650;28;20178;-70
2021/11/04 12:48:00;;;;;;;6.20;5.60;;;8.70;99.90;;;;;;5011660;28;20825;-69
2021/11/04 12:50:27;;;;;;;6.30;5.70;;;8.60;99.90;;;;;;5011929;28;20523;-70
2021/11/04 12:53:09;;;;;;;6.27;5.67;;;8.50;99.90;;;;;;5009226;28;21092;-69
2021/11/04 12:55:35;;;;;;;7.43;6.20;;;8.60;99.90;;;;;;5011383;28;20465;-69
2021/11/04 12:58:04;;;;;;;7.73;6.97;;;8.60;99.90;;;;;;5011491;28;20462;-70
2021/11/04 13:00:30;;;;;;;6.70;6.10;;;8.80;99.90;;;;;;5011842;28;20935;-69
2021/11/04 13:02:55;;;;;;;7.27;6.43;;;9.20;99.90;;;;;;5008903;28;20520;-69
2021/11/04 13:05:22;;;;;;;6.80;6.20;;;9.50;99.90;;;;;;5011451;28;20253;-70